Time;durP1;ratioP1;P1;durP2;ratioP2;P2;SDS_P1;SDS_P2;PMS_P1;PMS_P2;Temp;Humidity;BMP_temperature;BMP_pressure;BME280_temperature;BME280_humidity;BME280_pressure;Samples;Min_cycle;Max_cycle;Signal;HPM_P1;HPM_P2
2021/07/24 00:01:09;;;;;;;6.07;3.33;;;18.20;68.10;;;;;;4883855;29;20060;-76
2021/07/24 00:03:37;;;;;;;7.25;3.75;;;18.20;68.10;;;;;;4857588;29;20108;-76
2021/07/24 00:06:05;;;;;;;5.68;3.25;;;18.20;68.30;;;;;;4886968;29;20085;-76
2021/07/24 00:08:32;;;;;;;5.07;3.10;;;18.10;68.30;;;;;;4870762;29;20060;-73
2021/07/24 00:11:07;;;;;;;5.90;3.05;;;18.10;68.40;;;;;;4867625;29;20721;-75
2021/07/24 00:13:35;;;;;;;5.60;3.30;;;18.10;68.50;;;;;;4869504;29;20454;-75
2021/07/24 00:16:03;;;;;;;7.35;3.88;;;18.00;68.50;;;;;;4864661;29;20086;-75
2021/07/24 00:18:34;;;;;;;7.70;4.30;;;18.00;68.70;;;;;;4865822;29;20135;-76
2021/07/24 00:21:01;;;;;;;5.13;3.28;;;18.00;68.80;;;;;;4863165;29;20048;-75
2021/07/24 00:23:28;;;;;;;7.93;4.28;;;18.00;68.90;;;;;;4869252;29;20075;-75
2021/07/24 00:25:55;;;;;;;6.88;4.00;;;18.00;69.20;;;;;;4859037;29;20447;-75
2021/07/24 00:28:22;;;;;;;7.10;3.67;;;18.00;69.20;;;;;;4870712;29;20105;-80
2021/07/24 00:30:49;;;;;;;6.63;3.80;;;18.00;69.20;;;;;;4876221;29;20060;-80
2021/07/24 00:33:23;;;;;;;5.93;3.75;;;17.90;69.30;;;;;;4870052;29;20047;-79
2021/07/24 00:35:50;;;;;;;9.55;4.70;;;17.90;69.30;;;;;;4873935;29;20045;-81
2021/07/24 00:38:17;;;;;;;9.02;4.63;;;18.00;69.50;;;;;;4885270;29;20123;-83
2021/07/24 00:40:51;;;;;;;6.93;4.20;;;18.00;69.60;;;;;;4850170;29;20072;-76
2021/07/24 00:43:19;;;;;;;7.72;4.75;;;18.00;69.70;;;;;;4873431;29;20036;-76
2021/07/24 00:45:49;;;;;;;8.95;5.28;;;18.00;69.80;;;;;;4883763;29;21514;-76
2021/07/24 00:48:20;;;;;;;10.40;4.75;;;17.90;70.00;;;;;;4874505;29;20041;-76
2021/07/24 00:51:06;;;;;;;8.38;4.65;;;17.90;70.10;;;;;;4886612;29;20079;-82
2021/07/24 00:53:36;;;;;;;9.02;5.13;;;17.90;70.10;;;;;;4876173;29;20045;-80
2021/07/24 00:56:05;;;;;;;6.57;3.90;;;17.90;70.30;;;;;;4864672;29;20048;-80
2021/07/24 00:58:35;;;;;;;6.97;4.15;;;17.90;70.20;;;;;;4893577;29;20037;-80
2021/07/24 01:01:05;;;;;;;5.90;3.78;;;17.90;70.30;;;;;;4874904;29;20105;-80
2021/07/24 01:03:36;;;;;;;5.07;3.17;;;17.80;70.30;;;;;;4893065;29;20041;-75
2021/07/24 01:06:03;;;;;;;4.68;3.00;;;17.80;70.30;;;;;;4871024;29;20041;-75
2021/07/24 01:08:32;;;;;;;5.40;3.00;;;17.80;70.90;;;;;;4863469;29;20056;-75
2021/07/24 01:11:04;;;;;;;5.85;3.25;;;17.80;70.40;;;;;;4860073;29;20084;-76
2021/07/24 01:13:35;;;;;;;5.80;3.15;;;17.80;70.50;;;;;;4874654;29;20036;-76
2021/07/24 01:16:04;;;;;;;5.15;3.17;;;17.80;70.60;;;;;;4864581;29;20132;-75
2021/07/24 01:18:34;;;;;;;6.32;3.88;;;17.80;70.70;;;;;;4870009;29;20127;-76
2021/07/24 01:21:13;;;;;;;5.60;3.40;;;17.70;70.80;;;;;;4861949;29;20040;-81
2021/07/24 01:23:47;;;;;;;6.28;4.03;;;17.70;70.90;;;;;;4869221;29;20136;-81
2021/07/24 01:26:23;;;;;;;6.63;3.85;;;17.70;71.10;;;;;;4859444;29;20049;-81
2021/07/24 01:28:52;;;;;;;7.72;3.65;;;17.70;71.10;;;;;;4872056;29;20497;-81
2021/07/24 01:31:20;;;;;;;6.30;3.67;;;17.60;71.10;;;;;;4860534;29;20044;-80
2021/07/24 01:33:48;;;;;;;7.20;4.28;;;17.60;71.20;;;;;;4891966;29;20056;-81
2021/07/24 01:36:16;;;;;;;8.43;4.13;;;17.60;71.40;;;;;;4865253;29;20461;-80
2021/07/24 01:38:43;;;;;;;6.60;4.25;;;17.50;71.50;;;;;;4869773;29;20056;-80
2021/07/24 01:41:14;;;;;;;8.02;4.30;;;17.50;71.60;;;;;;4871028;29;20039;-80
2021/07/24 01:43:43;;;;;;;5.50;3.42;;;17.50;71.70;;;;;;4883563;29;20044;-80
2021/07/24 01:46:12;;;;;;;6.85;4.00;;;17.50;71.80;;;;;;4871699;29;20112;-80
2021/07/24 01:54:28;;;;;;;8.07;4.05;;;17.40;72.00;;;;;;4870127;29;20059;-75
2021/07/24 01:56:56;;;;;;;7.80;4.38;;;17.40;72.20;;;;;;4872968;29;20381;-75
2021/07/24 01:59:33;;;;;;;7.53;4.47;;;17.30;72.30;;;;;;4841150;29;20131;-75
2021/07/24 02:02:02;;;;;;;7.65;4.68;;;17.30;72.50;;;;;;4868894;29;20045;-75
2021/07/24 02:04:34;;;;;;;;;;;17.30;72.70;;;;;;4859511;29;20049;-75
2021/07/24 02:07:04;;;;;;;6.85;3.50;;;17.20;72.60;;;;;;4877451;29;19927;-75
2021/07/24 02:09:42;;;;;;;7.43;4.03;;;17.10;72.70;;;;;;4875362;29;20064;-75
2021/07/24 02:12:15;;;;;;;8.00;4.05;;;17.10;72.90;;;;;;4836077;29;20420;-80
2021/07/24 02:14:47;;;;;;;7.63;3.83;;;17.10;73.10;;;;;;4864079;29;20049;-80
2021/07/24 02:17:20;;;;;;;6.53;3.70;;;17.10;73.00;;;;;;4872994;29;20508;-81
2021/07/24 02:19:49;;;;;;;7.60;4.20;;;17.10;73.10;;;;;;4874939;29;20068;-80
2021/07/24 02:22:17;;;;;;;7.50;4.10;;;17.10;73.20;;;;;;4872404;29;20033;-80
2021/07/24 02:24:53;;;;;;;5.50;3.50;;;17.00;73.20;;;;;;4862193;29;20053;-80
2021/07/24 02:27:20;;;;;;;6.38;3.22;;;17.10;73.40;;;;;;4858579;29;20048;-79
2021/07/24 02:29:49;;;;;;;6.53;3.10;;;17.00;73.50;;;;;;4873776;29;20041;-79
2021/07/24 02:32:18;;;;;;;7.70;4.10;;;17.00;73.50;;;;;;4878346;29;20142;-79
2021/07/24 02:34:47;;;;;;;5.95;3.47;;;17.00;73.60;;;;;;4860910;29;20063;-80
2021/07/24 02:37:14;;;;;;;5.57;3.13;;;17.00;73.70;;;;;;4872799;29;20047;-80
2021/07/24 02:39:41;;;;;;;6.25;3.95;;;17.00;73.70;;;;;;4872142;29;20045;-75
2021/07/24 02:42:09;;;;;;;7.15;3.47;;;17.00;73.80;;;;;;4857317;29;20049;-75
2021/07/24 02:44:43;;;;;;;7.00;3.95;;;17.00;73.80;;;;;;4860699;29;20462;-75
2021/07/24 02:47:10;;;;;;;6.93;3.60;;;17.00;73.90;;;;;;4871811;29;20052;-75
2021/07/24 02:49:40;;;;;;;5.95;3.03;;;16.90;74.50;;;;;;4830119;29;20096;-75
2021/07/24 02:52:07;;;;;;;5.95;3.15;;;16.90;74.00;;;;;;4866996;29;20041;-75
2021/07/24 02:54:36;;;;;;;5.85;3.08;;;16.90;74.10;;;;;;4885232;29;20112;-75
2021/07/24 02:57:03;;;;;;;6.68;3.45;;;16.90;74.10;;;;;;4840090;29;20052;-75
2021/07/24 02:59:31;;;;;;;6.75;3.72;;;16.80;74.20;;;;;;4873968;29;20051;-75
2021/07/24 03:01:59;;;;;;;6.68;3.70;;;16.80;74.40;;;;;;4873247;29;20463;-75
2021/07/24 03:04:26;;;;;;;7.78;3.78;;;16.80;74.50;;;;;;4859717;29;20131;-75
2021/07/24 03:06:54;;;;;;;7.75;3.88;;;16.70;74.60;;;;;;4869555;29;20055;-75
2021/07/24 03:09:21;;;;;;;6.65;3.75;;;16.70;74.70;;;;;;4846338;29;20052;-75
2021/07/24 03:11:48;;;;;;;7.57;4.03;;;16.70;74.80;;;;;;4870135;29;20041;-75
2021/07/24 03:14:15;;;;;;;7.95;3.50;;;16.70;74.80;;;;;;4852816;29;20501;-75
2021/07/24 03:16:43;;;;;;;5.95;3.30;;;16.70;74.90;;;;;;4870608;29;20060;-75
2021/07/24 03:19:10;;;;;;;6.82;3.80;;;16.60;74.90;;;;;;4870877;29;20048;-75
2021/07/24 03:21:37;;;;;;;6.03;3.45;;;16.60;75.10;;;;;;4885271;29;20044;-75
2021/07/24 03:24:04;;;;;;;8.30;3.92;;;16.60;75.10;;;;;;4857858;29;20128;-75
2021/07/24 03:26:31;;;;;;;6.57;3.55;;;16.60;75.70;;;;;;4859217;29;20100;-75
2021/07/24 03:28:58;;;;;;;6.00;3.60;;;16.60;75.20;;;;;;4882153;29;20041;-75
2021/07/24 03:31:25;;;;;;;6.13;3.28;;;16.60;75.20;;;;;;4885000;29;20108;-75
2021/07/24 03:33:52;;;;;;;8.75;3.50;;;16.60;75.30;;;;;;4884773;29;20041;-75
2021/07/24 03:36:19;;;;;;;5.85;3.15;;;16.60;75.40;;;;;;4858281;29;20044;-75
2021/07/24 03:38:46;;;;;;;5.72;3.15;;;16.60;75.40;;;;;;4883559;29;20494;-75
2021/07/24 03:41:13;;;;;;;6.75;4.05;;;16.60;75.50;;;;;;4866140;29;20096;-75
2021/07/24 03:43:42;;;;;;;7.55;4.07;;;16.50;75.40;;;;;;4871424;29;20052;-75
2021/07/24 03:46:16;;;;;;;5.85;3.15;;;16.50;75.50;;;;;;4869504;29;20147;-75
2021/07/24 03:48:44;;;;;;;6.97;3.58;;;16.50;75.50;;;;;;4865905;29;20058;-75
2021/07/24 03:51:13;;;;;;;5.95;3.00;;;16.50;75.50;;;;;;4878536;29;20068;-75
2021/07/24 03:53:41;;;;;;;6.55;3.42;;;16.50;75.60;;;;;;4834911;29;20049;-75
2021/07/24 03:56:19;;;;;;;6.70;2.95;;;16.50;75.70;;;;;;4870682;29;20067;-75
2021/07/24 03:58:49;;;;;;;7.43;3.58;;;16.50;75.80;;;;;;4856361;29;20179;-75
2021/07/24 04:01:16;;;;;;;8.65;3.92;;;16.50;75.90;;;;;;4870069;29;20445;-74
2021/07/24 04:03:43;;;;;;;7.30;3.63;;;16.50;75.90;;;;;;4886296;29;20396;-75
2021/07/24 04:06:19;;;;;;;5.60;3.05;;;16.50;76.00;;;;;;4863374;29;20048;-74
2021/07/24 04:08:47;;;;;;;5.97;3.47;;;16.50;76.00;;;;;;4884831;29;20048;-74
2021/07/24 04:11:14;;;;;;;6.82;3.70;;;16.40;76.00;;;;;;4856969;29;20049;-74
2021/07/24 04:13:42;;;;;;;6.45;3.65;;;16.50;76.10;;;;;;4874680;29;20045;-74
2021/07/24 04:16:09;;;;;;;7.40;4.10;;;16.50;76.30;;;;;;4858818;29;20105;-74
2021/07/24 04:18:37;;;;;;;8.20;4.72;;;16.50;76.20;;;;;;4864805;29;20127;-74
2021/07/24 04:21:04;;;;;;;8.77;4.60;;;16.50;76.40;;;;;;4875554;29;20043;-74
2021/07/24 04:23:31;;;;;;;7.70;4.03;;;16.50;76.50;;;;;;4870102;29;20855;-74
2021/07/24 04:25:59;;;;;;;8.98;4.68;;;16.50;76.60;;;;;;4885380;29;20049;-74
2021/07/24 04:28:26;;;;;;;7.50;4.45;;;16.60;76.70;;;;;;4873796;29;20063;-74
2021/07/24 04:30:53;;;;;;;7.53;3.60;;;16.60;76.70;;;;;;4861659;29;20056;-74
2021/07/24 04:33:20;;;;;;;7.20;4.13;;;16.60;76.50;;;;;;4859403;29;20059;-74
2021/07/24 04:35:48;;;;;;;7.00;4.00;;;16.70;76.50;;;;;;4874527;29;20124;-77
2021/07/24 04:38:16;;;;;;;7.05;3.30;;;16.70;77.00;;;;;;4874970;29;20052;-76
2021/07/24 04:40:44;;;;;;;5.93;3.30;;;16.80;76.30;;;;;;4882320;29;20052;-77
2021/07/24 04:43:15;;;;;;;8.70;4.05;;;16.80;76.80;;;;;;4873506;29;20069;-76
2021/07/24 04:45:43;;;;;;;7.13;4.05;;;16.90;76.20;;;;;;4873863;29;20100;-74
2021/07/24 04:48:12;;;;;;;5.78;2.92;;;17.00;76.10;;;;;;4863156;29;20060;-74
2021/07/24 04:50:46;;;;;;;5.50;2.20;;;17.00;76.00;;;;;;4873860;29;20128;-74
2021/07/24 04:53:37;;;;;;;5.97;2.88;;;17.00;75.90;;;;;;4859816;29;20064;-74
2021/07/24 04:56:06;;;;;;;6.80;2.88;;;17.10;75.90;;;;;;4871617;29;20111;-74
2021/07/24 04:58:35;;;;;;;6.85;3.47;;;17.20;75.70;;;;;;4861184;29;20068;-75
2021/07/24 05:01:03;;;;;;;6.90;3.65;;;17.20;75.60;;;;;;4881671;29;20445;-75
2021/07/24 05:03:32;;;;;;;5.68;2.90;;;17.20;75.50;;;;;;4871533;29;20044;-75
2021/07/24 05:06:00;;;;;;;6.82;3.13;;;17.30;75.50;;;;;;4858910;29;20068;-75
2021/07/24 05:08:28;;;;;;;6.25;3.15;;;17.30;75.40;;;;;;4883611;29;20053;-75
2021/07/24 05:10:55;;;;;;;5.22;2.60;;;17.30;75.40;;;;;;4873898;29;20063;-75
2021/07/24 05:13:22;;;;;;;6.45;3.53;;;17.40;75.30;;;;;;4888637;29;20434;-76
2021/07/24 05:15:49;;;;;;;5.88;2.97;;;17.40;75.20;;;;;;4867339;29;20591;-76
2021/07/24 05:18:16;;;;;;;5.57;3.22;;;17.40;75.20;;;;;;4864032;29;20489;-76
2021/07/24 05:20:43;;;;;;;6.53;3.35;;;17.40;75.10;;;;;;4879881;29;20569;-75
2021/07/24 05:23:10;;;;;;;5.68;3.20;;;17.50;75.30;;;;;;4855258;29;20144;-75
2021/07/24 05:25:38;;;;;;;7.03;3.10;;;17.50;75.90;;;;;;4869696;29;20037;-75
2021/07/24 05:28:05;;;;;;;6.35;3.00;;;17.50;75.20;;;;;;4874704;29;20108;-75
2021/07/24 05:30:33;;;;;;;6.85;3.50;;;17.60;75.10;;;;;;4883355;29;20072;-75
2021/07/24 05:33:00;;;;;;;6.35;2.70;;;17.60;75.00;;;;;;4890088;29;20049;-76
2021/07/24 05:35:27;;;;;;;5.60;3.17;;;17.70;74.90;;;;;;4886246;29;20049;-76
2021/07/24 05:37:54;;;;;;;6.80;3.70;;;17.70;74.80;;;;;;4874546;29;20049;-76
2021/07/24 05:40:21;;;;;;;5.68;3.00;;;17.80;74.70;;;;;;4874430;29;20040;-76
2021/07/24 05:42:48;;;;;;;6.03;3.47;;;17.80;74.60;;;;;;4865079;29;20060;-75
2021/07/24 05:45:15;;;;;;;6.07;3.70;;;17.90;74.60;;;;;;4867612;29;20068;-76
2021/07/24 05:47:42;;;;;;;6.53;3.55;;;17.90;74.50;;;;;;4872981;29;20063;-75
2021/07/24 05:50:10;;;;;;;5.88;3.45;;;18.00;74.40;;;;;;4872462;29;20045;-75
2021/07/24 05:52:37;;;;;;;5.18;2.90;;;18.00;74.20;;;;;;4869159;29;20113;-76
2021/07/24 05:55:04;;;;;;;5.47;3.00;;;18.20;74.20;;;;;;4865874;29;20377;-75
2021/07/24 05:57:31;;;;;;;6.35;3.42;;;18.30;73.90;;;;;;4859262;29;20060;-75
2021/07/24 05:59:58;;;;;;;6.20;3.22;;;18.40;73.80;;;;;;4870080;29;20055;-75
2021/07/24 06:02:25;;;;;;;5.78;3.10;;;18.40;73.50;;;;;;4871443;29;20438;-75
2021/07/24 06:04:53;;;;;;;5.75;2.70;;;18.50;73.40;;;;;;4867235;29;20119;-75
2021/07/24 06:07:20;;;;;;;4.43;2.47;;;18.60;73.30;;;;;;4857517;29;20041;-76
2021/07/24 06:09:47;;;;;;;4.97;2.75;;;18.70;73.20;;;;;;4885902;29;20049;-76
2021/07/24 06:12:14;;;;;;;5.13;2.70;;;18.80;73.00;;;;;;4856188;29;20050;-76
2021/07/24 06:14:41;;;;;;;6.03;2.92;;;18.80;72.90;;;;;;4846381;29;20047;-75
2021/07/24 06:17:08;;;;;;;5.35;2.83;;;18.90;73.40;;;;;;4873959;29;20049;-75
2021/07/24 06:19:35;;;;;;;5.32;2.97;;;19.00;72.70;;;;;;4856463;29;20057;-75
2021/07/24 06:22:02;;;;;;;4.72;2.78;;;19.00;72.60;;;;;;4869194;29;20049;-75
2021/07/24 06:24:29;;;;;;;4.70;3.03;;;19.10;72.50;;;;;;4881492;29;20068;-75
2021/07/24 06:26:56;;;;;;;7.05;3.78;;;19.10;72.40;;;;;;4873816;29;20049;-80
2021/07/24 06:29:23;;;;;;;5.55;3.22;;;19.10;72.40;;;;;;4861431;29;20087;-80
2021/07/24 06:31:50;;;;;;;5.95;2.75;;;19.20;72.40;;;;;;4889176;29;20123;-80
2021/07/24 06:34:17;;;;;;;5.15;2.55;;;19.30;72.20;;;;;;4876390;29;20100;-80
2021/07/24 06:36:44;;;;;;;5.40;2.90;;;19.40;72.10;;;;;;4859046;29;20041;-80
2021/07/24 06:39:11;;;;;;;5.80;3.03;;;19.40;72.00;;;;;;4875359;29;20037;-80
2021/07/24 06:41:39;;;;;;;6.60;3.40;;;19.50;71.80;;;;;;4858794;29;20467;-79
2021/07/24 06:44:07;;;;;;;6.30;3.15;;;19.50;71.70;;;;;;4869273;29;20100;-80
2021/07/24 06:46:34;;;;;;;5.47;3.15;;;19.60;71.70;;;;;;4861201;29;20063;-80
2021/07/24 06:49:01;;;;;;;6.47;3.67;;;19.60;71.60;;;;;;4871596;29;20060;-79
2021/07/24 06:51:28;;;;;;;5.50;3.20;;;19.60;71.60;;;;;;4873617;29;20044;-80
2021/07/24 06:53:55;;;;;;;6.53;3.83;;;19.70;71.60;;;;;;4876266;29;20064;-80
2021/07/24 06:56:22;;;;;;;6.18;3.42;;;19.70;71.50;;;;;;4890691;29;20041;-80
2021/07/24 06:58:51;;;;;;;6.13;3.88;;;19.70;71.50;;;;;;4866386;29;20049;-80
2021/07/24 07:01:18;;;;;;;5.88;3.42;;;19.60;71.40;;;;;;4849228;29;20045;-80
2021/07/24 07:03:46;;;;;;;6.60;3.60;;;19.60;71.60;;;;;;4872180;29;20119;-80
2021/07/24 07:06:13;;;;;;;5.72;3.40;;;19.60;71.60;;;;;;4872261;29;20080;-80
2021/07/24 07:08:41;;;;;;;4.60;2.83;;;19.60;71.60;;;;;;4874868;29;20049;-79
2021/07/24 07:11:08;;;;;;;5.03;3.25;;;19.60;71.50;;;;;;4874251;29;20044;-79
2021/07/24 07:13:36;;;;;;;5.85;3.70;;;19.60;71.50;;;;;;4896352;29;20112;-80
2021/07/24 07:16:05;;;;;;;6.50;3.25;;;19.60;71.50;;;;;;4899886;29;20056;-80
2021/07/24 07:18:32;;;;;;;5.95;3.05;;;19.70;71.40;;;;;;4895395;29;20441;-79
2021/07/24 07:21:00;;;;;;;8.48;4.13;;;19.80;71.30;;;;;;4864455;29;20092;-77
2021/07/24 07:23:27;;;;;;;5.07;2.75;;;19.80;71.10;;;;;;4865460;29;20096;-77
2021/07/24 07:25:54;;;;;;;6.22;3.30;;;19.90;71.10;;;;;;4849895;29;20100;-80
2021/07/24 07:28:21;;;;;;;6.18;3.47;;;20.00;71.10;;;;;;4877967;29;20052;-80
2021/07/24 07:30:48;;;;;;;6.03;3.63;;;20.00;70.90;;;;;;4894714;29;20037;-79
2021/07/24 07:33:16;;;;;;;5.22;3.47;;;20.10;70.80;;;;;;4864487;29;20458;-80
2021/07/24 07:35:43;;;;;;;4.95;3.08;;;20.20;70.80;;;;;;4864957;29;20056;-80
2021/07/24 07:38:10;;;;;;;4.55;2.72;;;20.20;70.60;;;;;;4877707;29;20500;-79
2021/07/24 07:40:39;;;;;;;5.65;3.30;;;20.20;70.60;;;;;;4890356;29;20085;-77
2021/07/24 07:43:08;;;;;;;4.18;2.50;;;20.30;70.60;;;;;;4863262;29;20485;-77
2021/07/24 07:45:40;;;;;;;4.38;2.42;;;20.40;70.50;;;;;;4878359;29;20048;-78
2021/07/24 07:48:08;;;;;;;4.35;2.40;;;20.50;70.30;;;;;;4867330;29;20053;-80
2021/07/24 07:50:40;;;;;;;6.13;3.15;;;20.50;70.20;;;;;;4887775;29;20036;-79
2021/07/24 07:53:07;;;;;;;4.63;2.72;;;20.60;70.10;;;;;;4875618;29;20045;-78
2021/07/24 07:55:35;;;;;;;5.28;3.05;;;20.70;70.00;;;;;;4877624;29;20116;-78
2021/07/24 07:58:09;;;;;;;6.07;3.25;;;20.80;69.70;;;;;;4880783;29;20056;-79
2021/07/24 08:00:36;;;;;;;4.63;2.80;;;20.80;69.60;;;;;;4874827;29;20501;-78
2021/07/24 08:03:03;;;;;;;4.93;3.25;;;20.90;70.20;;;;;;4875371;29;20096;-78
2021/07/24 08:05:30;;;;;;;4.75;2.95;;;20.90;69.40;;;;;;4891182;29;20033;-79
2021/07/24 08:07:58;;;;;;;6.45;3.10;;;21.00;69.40;;;;;;4880966;29;20056;-79
2021/07/24 08:10:25;;;;;;;5.13;3.65;;;21.10;69.30;;;;;;4849093;29;20056;-78
2021/07/24 08:12:53;;;;;;;5.07;3.25;;;21.10;69.10;;;;;;4892700;29;20060;-79
2021/07/24 08:15:20;;;;;;;5.63;3.20;;;21.20;68.90;;;;;;4858485;29;20096;-78
2021/07/24 08:17:47;;;;;;;7.43;3.75;;;21.30;68.80;;;;;;4875837;29;20569;-77
2021/07/24 08:20:14;;;;;;;5.20;3.25;;;21.50;68.60;;;;;;4879751;29;20133;-78
2021/07/24 08:22:41;;;;;;;6.78;3.72;;;21.60;68.40;;;;;;4864157;29;20079;-79
2021/07/24 08:25:09;;;;;;;5.30;3.42;;;21.70;68.20;;;;;;4887939;29;20040;-78
2021/07/24 08:27:43;;;;;;;4.80;3.03;;;21.80;68.00;;;;;;4862378;29;20441;-78
2021/07/24 08:30:11;;;;;;;4.88;3.42;;;22.00;67.70;;;;;;4862206;29;20124;-82
2021/07/24 08:32:38;;;;;;;4.65;2.83;;;22.20;67.40;;;;;;4873887;29;20045;-81
2021/07/24 08:35:05;;;;;;;4.68;2.88;;;22.40;67.10;;;;;;4895627;29;20400;-83
2021/07/24 08:37:32;;;;;;;4.70;2.80;;;22.50;66.90;;;;;;4877845;29;20044;-81
2021/07/24 08:39:59;;;;;;;4.93;3.03;;;22.60;67.30;;;;;;4889817;29;20072;-79
2021/07/24 08:42:39;;;;;;;4.38;2.42;;;22.80;66.40;;;;;;4873917;29;20052;-80
2021/07/24 08:45:16;;;;;;;4.72;3.03;;;23.10;66.00;;;;;;4870652;29;20106;-80
2021/07/24 08:47:44;;;;;;;5.13;2.83;;;23.30;65.90;;;;;;4893594;29;20041;-81
2021/07/24 08:50:13;;;;;;;4.90;3.08;;;23.40;65.40;;;;;;4873044;29;20041;-81
2021/07/24 08:52:41;;;;;;;4.57;3.20;;;23.50;65.20;;;;;;4894494;29;20075;-81
2021/07/24 08:55:09;;;;;;;4.18;3.00;;;23.50;65.20;;;;;;4861437;29;20052;-81
2021/07/24 08:57:42;;;;;;;5.05;3.10;;;23.60;65.00;;;;;;4877718;29;20497;-81
2021/07/24 09:00:15;;;;;;;4.82;3.17;;;23.60;64.80;;;;;;4873176;29;20077;-81
2021/07/24 09:02:44;;;;;;;4.43;3.05;;;23.70;64.80;;;;;;4877613;29;20041;-80
2021/07/24 09:05:13;;;;;;;4.13;2.75;;;23.70;64.70;;;;;;4877035;29;20055;-79
2021/07/24 09:07:44;;;;;;;5.20;3.10;;;23.80;64.60;;;;;;4861151;29;20045;-78
2021/07/24 09:10:11;;;;;;;4.80;3.08;;;23.80;64.50;;;;;;4870428;29;20434;-77
2021/07/24 09:12:41;;;;;;;4.68;2.78;;;23.80;64.60;;;;;;4876352;29;20132;-82
2021/07/24 09:15:10;;;;;;;3.97;2.85;;;23.90;64.40;;;;;;4880503;29;20497;-79
2021/07/24 09:17:37;;;;;;;4.10;2.78;;;24.10;64.30;;;;;;4898572;29;20116;-79
2021/07/24 09:20:05;;;;;;;3.88;2.40;;;24.20;63.90;;;;;;4876101;29;20131;-79
2021/07/24 09:22:40;;;;;;;3.85;2.65;;;24.40;63.80;;;;;;4896446;29;20056;-76
2021/07/24 09:25:12;;;;;;;4.57;2.78;;;24.60;63.40;;;;;;4894347;29;20044;-75
2021/07/24 09:27:40;;;;;;;;;;;24.60;63.10;;;;;;4897026;29;20053;-80
2021/07/24 09:30:28;;;;;;;4.65;2.90;;;24.70;63.10;;;;;;4897211;29;19947;-79
2021/07/24 09:33:03;;;;;;;4.07;2.53;;;24.60;63.10;;;;;;4893359;29;20044;-78
2021/07/24 09:35:40;;;;;;;5.05;3.30;;;24.70;63.20;;;;;;4866608;29;20068;-79
2021/07/24 09:38:14;;;;;;;3.83;2.92;;;24.70;63.10;;;;;;4871891;29;20041;-79
2021/07/24 09:40:44;;;;;;;5.63;3.47;;;24.70;63.00;;;;;;4873744;29;20060;-81
2021/07/24 09:43:29;;;;;;;4.93;3.08;;;24.60;62.90;;;;;;4862740;29;20083;-81
2021/07/24 09:46:27;;;;;;;5.53;2.72;;;24.70;62.80;;;;;;4889283;29;20037;-78
2021/07/24 09:48:55;;;;;;;5.40;2.88;;;24.70;62.80;;;;;;4886185;29;20087;-78
2021/07/24 09:51:36;;;;;;;5.55;2.97;;;24.60;62.80;;;;;;4894324;29;20055;-80
2021/07/24 09:54:04;;;;;;;3.83;2.57;;;24.70;62.80;;;;;;4874401;29;20044;-79
2021/07/24 09:56:39;;;;;;;6.43;3.97;;;24.70;62.80;;;;;;4877290;29;20284;-80
2021/07/24 09:59:34;;;;;;;4.45;3.03;;;24.70;62.70;;;;;;4871873;29;20100;-79
2021/07/24 10:02:07;;;;;;;4.50;2.67;;;24.60;62.70;;;;;;4890762;29;20045;-78
2021/07/24 10:04:35;;;;;;;4.63;2.53;;;24.50;62.80;;;;;;4892017;29;20489;-78
2021/07/24 10:07:25;;;;;;;4.85;3.20;;;24.50;63.00;;;;;;4867656;29;20497;-78
2021/07/24 10:09:52;;;;;;;6.18;3.47;;;24.50;63.10;;;;;;4897673;29;20067;-77
2021/07/24 10:12:19;;;;;;;4.93;2.80;;;24.50;63.00;;;;;;4894077;29;20044;-82
2021/07/24 10:14:47;;;;;;;4.90;3.25;;;24.50;63.10;;;;;;4876657;29;20051;-81
2021/07/24 10:17:15;;;;;;;4.53;2.85;;;24.50;63.00;;;;;;4867227;29;20564;-82
2021/07/24 10:19:43;;;;;;;5.22;3.80;;;24.50;62.90;;;;;;4865325;29;20127;-75
2021/07/24 10:22:10;;;;;;;4.65;2.50;;;24.60;62.90;;;;;;4882668;29;20048;-76
2021/07/24 10:24:37;;;;;;;5.53;2.95;;;24.50;62.80;;;;;;4890298;29;20512;-74
2021/07/24 10:27:09;;;;;;;5.43;3.35;;;24.60;62.80;;;;;;4894613;29;20049;-74
2021/07/24 10:29:45;;;;;;;5.65;2.85;;;24.60;62.80;;;;;;4869837;29;20448;-75
2021/07/24 10:32:15;;;;;;;4.72;2.72;;;24.60;62.80;;;;;;4878070;29;20048;-75
2021/07/24 10:34:54;;;;;;;5.20;2.67;;;24.60;62.90;;;;;;4889664;29;20044;-77
2021/07/24 10:37:34;;;;;;;4.70;3.08;;;24.70;62.90;;;;;;4865372;29;20112;-77
2021/07/24 10:40:20;;;;;;;4.72;2.75;;;24.70;62.90;;;;;;4887944;29;20072;-76
2021/07/24 10:42:48;;;;;;;5.47;3.17;;;24.80;62.80;;;;;;4881306;29;20048;-76
2021/07/24 10:45:31;;;;;;;4.82;3.20;;;24.80;62.90;;;;;;4872058;29;20045;-77
2021/07/24 10:48:14;;;;;;;4.50;2.85;;;24.90;62.80;;;;;;4880369;29;20100;-77
2021/07/24 10:50:50;;;;;;;;;;;24.80;62.90;;;;;;4897287;29;20384;-77
2021/07/24 10:53:17;;;;;;;5.30;3.40;;;24.70;63.10;;;;;;4892812;29;19923;-77
2021/07/24 10:55:51;;;;;;;5.13;3.42;;;24.70;63.20;;;;;;4864613;29;20102;-78
2021/07/24 10:58:25;;;;;;;4.25;3.10;;;24.70;63.20;;;;;;4877899;29;20047;-76
2021/07/24 11:00:54;;;;;;;4.38;3.13;;;24.60;63.30;;;;;;4874608;29;20048;-74
2021/07/24 11:03:36;;;;;;;5.63;3.55;;;24.60;63.30;;;;;;4854716;29;20049;-76
2021/07/24 11:06:24;;;;;;;4.18;2.95;;;24.60;63.30;;;;;;4879811;29;20044;-81
2021/07/24 11:08:57;;;;;;;6.78;4.00;;;24.60;63.40;;;;;;4855204;29;20482;-81
2021/07/24 11:11:38;;;;;;;5.30;3.67;;;24.50;63.30;;;;;;4869902;29;20589;-80
2021/07/24 11:14:05;;;;;;;6.50;4.32;;;24.50;63.50;;;;;;4877523;29;20045;-74
2021/07/24 11:17:03;;;;;;;6.18;3.90;;;24.30;63.60;;;;;;4880116;29;20045;-76
2021/07/24 11:19:32;;;;;;;5.90;4.07;;;24.30;63.70;;;;;;4865135;29;20173;-77
2021/07/24 11:22:13;;;;;;;5.20;3.45;;;24.10;63.90;;;;;;4872744;29;20131;-78
2021/07/24 11:24:45;;;;;;;5.68;4.18;;;24.20;64.00;;;;;;4880463;29;20481;-78
2021/07/24 11:27:12;;;;;;;4.43;2.78;;;24.20;64.00;;;;;;4897557;29;20101;-78
2021/07/24 11:29:39;;;;;;;5.93;3.92;;;24.20;64.00;;;;;;4880856;29;20048;-77
2021/07/24 11:32:07;;;;;;;5.40;4.07;;;24.20;64.00;;;;;;4862161;29;20037;-77
2021/07/24 11:34:36;;;;;;;6.40;4.07;;;24.10;64.10;;;;;;4883151;29;20130;-74
2021/07/24 11:37:04;;;;;;;5.95;4.10;;;24.10;64.10;;;;;;4887525;29;20096;-78
2021/07/24 11:39:32;;;;;;;5.85;3.53;;;24.20;64.10;;;;;;4875932;29;20085;-78
2021/07/24 11:41:59;;;;;;;6.40;4.18;;;24.20;64.00;;;;;;4891054;29;20092;-79
2021/07/24 11:44:31;;;;;;;4.40;3.00;;;24.20;64.00;;;;;;4881841;29;20507;-80
2021/07/24 11:47:01;;;;;;;7.00;4.30;;;24.30;63.90;;;;;;4861740;29;20037;-84
2021/07/24 11:49:29;;;;;;;5.47;3.70;;;24.40;63.90;;;;;;4845681;29;20052;-77
2021/07/24 11:51:58;;;;;;;5.32;3.30;;;24.40;63.90;;;;;;4872608;29;20100;-80
2021/07/24 11:54:28;;;;;;;5.70;3.95;;;24.40;63.80;;;;;;4881074;29;20112;-77
2021/07/24 11:56:55;;;;;;;4.78;3.30;;;24.40;63.80;;;;;;4880534;29;20044;-80
2021/07/24 11:59:25;;;;;;;5.28;3.63;;;24.40;63.90;;;;;;4862865;29;20044;-76
2021/07/24 12:01:52;;;;;;;5.55;3.90;;;24.40;64.00;;;;;;4876380;29;20059;-81
2021/07/24 12:04:20;;;;;;;5.07;3.60;;;24.40;64.00;;;;;;4889366;29;20063;-75
2021/07/24 12:06:58;;;;;;;5.72;3.72;;;24.40;64.00;;;;;;4876030;29;20536;-79
2021/07/24 12:09:26;;;;;;;5.53;3.60;;;24.40;64.00;;;;;;4895563;29;20164;-79
2021/07/24 12:12:02;;;;;;;4.63;3.40;;;24.40;64.10;;;;;;4879197;29;20556;-80
2021/07/24 12:14:30;;;;;;;6.57;3.80;;;24.40;64.20;;;;;;4891190;29;20536;-77
2021/07/24 12:17:11;;;;;;;5.88;3.67;;;24.30;64.20;;;;;;4847296;29;20104;-79
2021/07/24 12:19:43;;;;;;;5.75;3.38;;;24.30;64.30;;;;;;4861461;29;20101;-79
2021/07/24 12:22:19;;;;;;;5.35;3.30;;;24.30;64.50;;;;;;4866038;29;20052;-78
2021/07/24 12:24:48;;;;;;;5.20;3.67;;;24.30;64.80;;;;;;4892798;29;20045;-77
2021/07/24 12:27:17;;;;;;;5.53;3.08;;;24.20;64.80;;;;;;4864536;29;20123;-78
2021/07/24 12:29:56;;;;;;;4.75;3.08;;;24.10;64.90;;;;;;4865295;29;20044;-79
2021/07/24 12:32:23;;;;;;;5.68;3.50;;;24.10;65.10;;;;;;4893804;29;20112;-80
2021/07/24 12:34:54;;;;;;;5.47;3.40;;;24.10;65.30;;;;;;4870278;29;20493;-82
2021/07/24 12:37:32;;;;;;;5.53;3.22;;;24.10;65.30;;;;;;4874682;29;20073;-78
2021/07/24 12:40:25;;;;;;;5.40;3.50;;;24.10;65.40;;;;;;4872827;29;20441;-79
2021/07/24 12:42:52;;;;;;;4.93;3.42;;;24.10;65.40;;;;;;4888478;29;20064;-79
2021/07/24 12:45:31;;;;;;;4.22;2.83;;;24.10;65.50;;;;;;4895419;29;20068;-78
2021/07/24 12:48:17;;;;;;;6.07;3.70;;;24.20;65.50;;;;;;4877722;29;20433;-78
2021/07/24 12:51:04;;;;;;;4.65;3.45;;;24.20;65.40;;;;;;4849102;29;20053;-78
2021/07/24 12:53:31;;;;;;;4.55;3.20;;;24.30;65.50;;;;;;4899504;29;20048;-81
2021/07/24 12:55:58;;;;;;;5.45;3.35;;;24.30;65.60;;;;;;4864727;29;20064;-80
2021/07/24 12:58:25;;;;;;;5.10;3.63;;;24.30;65.60;;;;;;4870390;29;20093;-76
2021/07/24 13:00:52;;;;;;;5.38;3.53;;;24.40;65.60;;;;;;4883217;29;20096;-80
2021/07/24 13:03:19;;;;;;;5.32;2.85;;;24.50;65.60;;;;;;4877466;29;20037;-76
2021/07/24 13:05:46;;;;;;;4.63;2.95;;;24.50;65.50;;;;;;4887012;29;20048;-75
2021/07/24 13:08:13;;;;;;;5.45;3.38;;;24.60;65.50;;;;;;4888731;29;20124;-77